Terminal Aerodrome Forecast
Issued by NWS

Home | Current Version | Previous Version | Text Only | Print | Product List | Glossary On
Versions: 1 2 3 4 5 6 7 8 9 10 11 12 13 14 15 16 17 18 19
000
FTUS45 KABQ 010000 AAA
TAFTCC
TAF AMD
KTCC 010050Z 0101/0124 21009KT P6SM SCT020
     FM010200 24006KT P6SM SCT020
     FM010600 35008KT 5SM BR BKN015
      TEMPO 0108/0112 2SM BR BKN007
     FM011600 03009KT P6SM SCT040
     FM011900 07006KT P6SM FEW030=

USA.gov is the U.S. government's official web portal to all federal, state and local government web resources and services.